createdAt,value
2023-05-17T00:00:29.354Z,0.00
2023-05-17T00:01:29.343Z,0.00
2023-05-17T00:02:29.365Z,0.00
2023-05-17T00:03:29.321Z,0.00
2023-05-17T00:04:29.298Z,0.00
2023-05-17T00:05:29.464Z,0.00
2023-05-17T00:06:29.337Z,0.00
2023-05-17T00:07:29.250Z,0.00
2023-05-17T00:08:29.239Z,0.00
2023-05-17T00:09:29.268Z,0.00
2023-05-17T00:10:29.230Z,0.00
2023-05-17T00:11:30.088Z,0.00
2023-05-17T00:12:29.206Z,0.00
2023-05-17T00:13:29.202Z,0.00
2023-05-17T00:14:29.190Z,0.00
2023-05-17T00:15:29.339Z,0.00
2023-05-17T00:16:29.159Z,0.00
2023-05-17T00:17:29.202Z,0.00
2023-05-17T00:18:29.187Z,0.00
2023-05-17T00:19:29.191Z,0.00
2023-05-17T00:20:29.174Z,0.00
2023-05-17T00:21:29.099Z,0.00
2023-05-17T00:22:29.094Z,0.00
2023-05-17T00:23:29.071Z,0.00
2023-05-17T00:24:29.082Z,0.00
2023-05-17T00:25:29.439Z,0.00
2023-05-17T00:26:29.061Z,0.00
2023-05-17T00:27:29.036Z,0.00
2023-05-17T00:28:29.017Z,0.00
2023-05-17T00:29:29.017Z,0.00
2023-05-17T00:30:29.004Z,0.00
2023-05-17T00:31:29.043Z,0.00
2023-05-17T00:32:29.002Z,0.00
2023-05-17T00:33:28.976Z,0.00
2023-05-17T00:34:28.995Z,0.00
2023-05-17T00:35:29.233Z,0.00
2023-05-17T00:36:28.944Z,0.00
2023-05-17T00:37:28.911Z,0.00
2023-05-17T00:38:28.936Z,0.00
2023-05-17T00:39:28.924Z,0.00
2023-05-17T00:40:28.894Z,0.00
2023-05-17T00:41:28.887Z,0.00
2023-05-17T00:42:28.886Z,0.00
2023-05-17T00:43:28.843Z,0.00
2023-05-17T00:44:28.856Z,0.00
2023-05-17T00:45:29.121Z,0.00
2023-05-17T00:46:28.863Z,0.00
2023-05-17T00:47:28.920Z,0.00
2023-05-17T00:48:28.877Z,0.00
2023-05-17T00:49:28.802Z,0.00
2023-05-17T00:50:28.783Z,0.00
2023-05-17T00:51:28.783Z,0.00
2023-05-17T00:52:28.781Z,0.00
2023-05-17T00:53:28.790Z,0.00
2023-05-17T00:54:28.759Z,0.00
2023-05-17T00:55:28.903Z,0.00
2023-05-17T00:56:28.720Z,0.00
2023-05-17T00:57:28.709Z,0.00
2023-05-17T00:58:28.676Z,0.00
2023-05-17T00:59:28.677Z,0.00
2023-05-17T01:00:28.650Z,0.00
2023-05-17T01:01:28.649Z,0.00
2023-05-17T01:02:28.725Z,0.00
2023-05-17T01:03:28.745Z,0.00
2023-05-17T01:04:28.629Z,0.00
2023-05-17T01:05:29.022Z,0.00
2023-05-17T01:06:28.612Z,0.00
2023-05-17T01:07:28.580Z,0.00
2023-05-17T01:08:28.569Z,0.00
2023-05-17T01:09:28.548Z,0.00
2023-05-17T01:10:28.556Z,0.00
2023-05-17T01:11:28.557Z,0.00
2023-05-17T01:12:28.538Z,0.00
2023-05-17T01:13:28.525Z,0.00
2023-05-17T01:14:28.508Z,0.00
2023-05-17T01:15:28.783Z,0.00
2023-05-17T01:16:28.483Z,0.00
2023-05-17T01:17:28.543Z,0.00
2023-05-17T01:18:28.623Z,0.00
2023-05-17T01:19:28.515Z,0.00
2023-05-17T01:20:28.615Z,0.00
2023-05-17T01:21:28.432Z,0.00
2023-05-17T01:22:28.451Z,0.00
2023-05-17T01:23:28.432Z,0.00
2023-05-17T01:24:28.533Z,0.00
2023-05-17T01:25:28.587Z,0.00
2023-05-17T01:26:28.376Z,0.00
2023-05-17T01:27:28.384Z,0.00
2023-05-17T01:28:28.352Z,0.00
2023-05-17T01:29:28.337Z,0.00
2023-05-17T01:30:28.360Z,0.00
2023-05-17T01:31:28.334Z,0.00
2023-05-17T01:32:28.415Z,0.00
2023-05-17T01:33:28.532Z,0.00
2023-05-17T01:34:28.308Z,0.00
2023-05-17T01:35:28.514Z,0.00
2023-05-17T01:36:28.276Z,0.00
2023-05-17T01:37:28.255Z,0.00
2023-05-17T01:38:28.253Z,0.00
2023-05-17T01:39:28.230Z,0.00
2023-05-17T01:40:28.211Z,0.00
2023-05-17T01:41:28.206Z,0.00
2023-05-17T01:42:28.207Z,0.00
2023-05-17T01:43:28.177Z,0.00
2023-05-17T01:44:28.176Z,0.00
2023-05-17T01:45:28.423Z,0.00
2023-05-17T01:46:28.171Z,0.00
2023-05-17T01:47:28.151Z,0.00
2023-05-17T01:48:28.204Z,0.00
2023-05-17T01:49:28.124Z,0.00
2023-05-17T01:50:28.115Z,0.00
2023-05-17T01:51:28.088Z,0.00
2023-05-17T01:52:28.156Z,0.00
2023-05-17T01:53:28.065Z,0.00
2023-05-17T01:54:28.064Z,0.00
2023-05-17T01:55:28.325Z,0.00
2023-05-17T01:56:28.062Z,0.00
2023-05-17T01:57:28.015Z,0.00
2023-05-17T01:58:28.011Z,0.00
2023-05-17T01:59:27.997Z,0.00
2023-05-17T02:00:28.015Z,0.00
2023-05-17T02:01:27.968Z,0.00
2023-05-17T02:02:27.998Z,0.00
2023-05-17T02:03:27.982Z,0.00
2023-05-17T02:04:27.941Z,0.00
2023-05-17T02:05:28.101Z,0.00
2023-05-17T02:06:27.916Z,0.00
2023-05-17T02:07:27.905Z,0.00
2023-05-17T02:08:27.902Z,0.00
2023-05-17T02:09:27.898Z,0.00
2023-05-17T02:10:27.893Z,0.00
2023-05-17T02:11:27.898Z,0.00
2023-05-17T02:12:27.865Z,0.00
2023-05-17T02:13:27.867Z,0.00
2023-05-17T02:14:27.833Z,0.00
2023-05-17T02:15:28.070Z,0.00
2023-05-17T02:16:27.819Z,0.00
2023-05-17T02:17:27.851Z,0.00
2023-05-17T02:18:27.912Z,0.00
2023-05-17T02:19:27.817Z,0.00
2023-05-17T02:20:27.790Z,0.00
2023-05-17T02:21:27.760Z,0.00
2023-05-17T02:22:27.754Z,0.00
2023-05-17T02:23:27.738Z,0.00
2023-05-17T02:24:27.727Z,0.00
2023-05-17T02:25:28.097Z,0.00
2023-05-17T02:26:27.722Z,0.00
2023-05-17T02:27:27.671Z,0.00
2023-05-17T02:28:27.693Z,0.00
2023-05-17T02:29:27.667Z,0.00
2023-05-17T02:30:27.662Z,0.00
2023-05-17T02:31:27.649Z,0.00
2023-05-17T02:32:27.690Z,0.00
2023-05-17T02:33:27.695Z,0.00
2023-05-17T02:34:27.608Z,0.00
2023-05-17T02:35:27.817Z,0.00
2023-05-17T02:36:27.590Z,0.00
2023-05-17T02:37:27.608Z,0.00
2023-05-17T02:38:27.574Z,0.00
2023-05-17T02:39:27.555Z,0.00
2023-05-17T02:40:27.550Z,0.00
2023-05-17T02:41:27.530Z,0.00
2023-05-17T02:42:27.514Z,0.00
2023-05-17T02:43:27.509Z,0.00
2023-05-17T02:44:27.505Z,0.00
2023-05-17T02:45:27.777Z,0.00
2023-05-17T02:46:27.492Z,0.00
2023-05-17T02:47:27.526Z,0.00
2023-05-17T02:48:27.463Z,0.00
2023-05-17T02:49:27.439Z,0.00
2023-05-17T02:50:27.432Z,0.00
2023-05-17T02:51:27.435Z,0.00
2023-05-17T02:52:27.419Z,0.00
2023-05-17T02:53:27.399Z,0.00
2023-05-17T02:54:27.399Z,0.00
2023-05-17T02:55:27.544Z,0.00
2023-05-17T02:56:27.353Z,0.00
2023-05-17T02:57:27.372Z,0.00
2023-05-17T02:58:27.330Z,0.00
2023-05-17T02:59:27.327Z,0.00
2023-05-17T03:00:27.316Z,0.00
2023-05-17T03:01:27.308Z,0.00
2023-05-17T03:02:27.381Z,0.00
2023-05-17T03:03:27.572Z,0.00
2023-05-17T03:04:27.336Z,0.00
2023-05-17T03:05:27.381Z,0.00
2023-05-17T03:06:27.273Z,0.00
2023-05-17T03:07:27.240Z,0.00
2023-05-17T03:08:27.261Z,0.00
2023-05-17T03:09:27.231Z,0.00
2023-05-17T03:10:27.213Z,0.00
2023-05-17T03:11:27.207Z,0.00
2023-05-17T03:12:28.350Z,0.00
2023-05-17T03:13:27.175Z,0.00
2023-05-17T03:14:27.166Z,0.00
2023-05-17T03:15:27.397Z,0.00
2023-05-17T03:16:27.139Z,0.00
2023-05-17T03:17:27.188Z,4.00
2023-05-17T03:18:27.216Z,4.00
2023-05-17T03:19:27.147Z,4.00
2023-05-17T03:20:27.111Z,4.00
2023-05-17T03:21:27.102Z,4.00
2023-05-17T03:22:27.084Z,8.00
2023-05-17T03:23:27.078Z,4.00
2023-05-17T03:24:27.074Z,8.00
2023-05-17T03:25:27.216Z,8.00
2023-05-17T03:26:27.027Z,12.00
2023-05-17T03:27:27.030Z,8.00
2023-05-17T03:28:27.112Z,12.00
2023-05-17T03:29:26.996Z,16.00
2023-05-17T03:30:27.010Z,16.00
2023-05-17T03:31:26.962Z,20.00
2023-05-17T03:32:26.988Z,24.00
2023-05-17T03:33:27.069Z,24.00
2023-05-17T03:34:26.943Z,24.00
2023-05-17T03:35:27.135Z,32.00
2023-05-17T03:36:26.906Z,36.00
2023-05-17T03:37:26.892Z,36.00
2023-05-17T03:38:26.971Z,44.00
2023-05-17T03:39:26.880Z,48.00
2023-05-17T03:40:26.885Z,52.00
2023-05-17T03:41:26.879Z,56.00
2023-05-17T03:42:26.852Z,64.00
2023-05-17T03:43:26.857Z,68.00
2023-05-17T03:44:26.860Z,76.00
2023-05-17T03:45:26.985Z,84.00
2023-05-17T03:46:26.803Z,88.00
2023-05-17T03:47:26.828Z,100.00
2023-05-17T03:48:26.811Z,108.00
2023-05-17T03:49:26.784Z,116.00
2023-05-17T03:50:26.762Z,124.00
2023-05-17T03:51:26.743Z,132.00
2023-05-17T03:52:26.757Z,144.00
2023-05-17T03:53:26.711Z,156.00
2023-05-17T03:54:26.739Z,172.00
2023-05-17T03:55:26.957Z,180.00
2023-05-17T03:56:26.697Z,192.00
2023-05-17T03:57:26.686Z,204.00
2023-05-17T03:58:26.680Z,220.00
2023-05-17T03:59:26.642Z,240.00
2023-05-17T04:00:26.656Z,252.00
2023-05-17T04:01:26.633Z,272.00
2023-05-17T04:02:26.676Z,288.00
2023-05-17T04:03:26.612Z,296.00
2023-05-17T04:04:26.855Z,316.00
2023-05-17T04:05:26.838Z,332.00
2023-05-17T04:06:26.581Z,352.00
2023-05-17T04:07:26.576Z,380.00
2023-05-17T04:08:26.563Z,404.00
2023-05-17T04:09:26.538Z,432.00
2023-05-17T04:10:26.590Z,456.00
2023-05-17T04:11:26.522Z,476.00
2023-05-17T04:12:26.542Z,496.00
2023-05-17T04:13:26.528Z,524.00
2023-05-17T04:14:26.494Z,544.00
2023-05-17T04:15:26.636Z,560.00
2023-05-17T04:16:26.466Z,568.00
2023-05-17T04:17:26.500Z,592.00
2023-05-17T04:18:26.576Z,616.00
2023-05-17T04:19:26.625Z,640.00
2023-05-17T04:20:26.403Z,676.00
2023-05-17T04:21:26.427Z,700.00
2023-05-17T04:22:26.422Z,732.00
2023-05-17T04:23:26.377Z,760.00
2023-05-17T04:24:26.381Z,804.00
2023-05-17T04:25:26.517Z,852.00
2023-05-17T04:26:26.350Z,880.00
2023-05-17T04:27:26.336Z,924.00
2023-05-17T04:28:26.333Z,956.00
2023-05-17T04:29:26.329Z,1012.00
2023-05-17T04:30:26.318Z,1064.00
2023-05-17T04:31:26.322Z,1060.00
2023-05-17T04:32:26.278Z,1048.00
2023-05-17T04:33:26.348Z,1068.00
2023-05-17T04:34:26.293Z,1104.00
2023-05-17T04:35:26.384Z,1128.00
2023-05-17T04:36:26.260Z,1248.00
2023-05-17T04:37:26.245Z,1332.00
2023-05-17T04:38:26.261Z,1352.00
2023-05-17T04:39:26.205Z,1380.00
2023-05-17T04:40:26.229Z,1408.00
2023-05-17T04:41:26.177Z,1356.00
2023-05-17T04:42:26.169Z,1352.00
2023-05-17T04:43:26.164Z,1388.00
2023-05-17T04:44:26.152Z,1372.00
2023-05-17T04:45:26.174Z,1352.00
2023-05-17T04:46:26.153Z,1336.00
2023-05-17T04:47:26.177Z,1280.00
2023-05-17T04:48:26.275Z,1288.00
2023-05-17T04:49:26.126Z,1300.00
2023-05-17T04:50:26.084Z,1328.00
2023-05-17T04:51:26.078Z,1356.00
2023-05-17T04:52:26.052Z,1328.00
2023-05-17T04:53:26.084Z,1392.00
2023-05-17T04:54:26.046Z,1456.00
2023-05-17T04:55:26.081Z,1428.00
2023-05-17T04:56:26.016Z,1420.00
2023-05-17T04:57:26.021Z,1472.00
2023-05-17T04:58:26.000Z,1520.00
2023-05-17T04:59:26.071Z,1564.00
2023-05-17T05:00:25.993Z,1740.00
2023-05-17T05:01:25.968Z,1972.00
2023-05-17T05:02:26.013Z,2160.00
2023-05-17T05:03:25.987Z,2092.00
2023-05-17T05:04:25.973Z,2084.00
2023-05-17T05:05:25.950Z,2168.00
2023-05-17T05:06:25.899Z,2236.00
2023-05-17T05:07:25.909Z,2260.00
2023-05-17T05:08:25.916Z,2212.00
2023-05-17T05:09:25.874Z,2136.00
2023-05-17T05:10:25.916Z,2328.00
2023-05-17T05:11:25.856Z,2392.00
2023-05-17T05:12:25.847Z,2304.00
2023-05-17T05:13:25.846Z,2208.00
2023-05-17T05:14:25.815Z,2128.00
2023-05-17T05:15:25.838Z,2140.00
2023-05-17T05:16:25.781Z,2200.00
2023-05-17T05:17:25.890Z,2176.00
2023-05-17T05:18:25.907Z,2188.00
2023-05-17T05:19:25.784Z,2212.00
2023-05-17T05:20:27.841Z,2236.00
2023-05-17T05:21:25.735Z,2284.00
2023-05-17T05:22:25.740Z,2320.00
2023-05-17T05:23:25.711Z,2324.00
2023-05-17T05:24:25.716Z,2308.00
2023-05-17T05:25:25.715Z,2360.00
2023-05-17T05:26:25.822Z,2388.00
2023-05-17T05:27:25.673Z,2376.00
2023-05-17T05:28:25.663Z,2360.00
2023-05-17T05:29:25.636Z,2392.00
2023-05-17T05:30:25.641Z,2424.00
2023-05-17T05:31:25.668Z,2424.00
2023-05-17T05:32:25.653Z,2460.00
2023-05-17T05:33:25.718Z,2524.00
2023-05-17T05:34:25.594Z,2540.00
2023-05-17T05:35:25.605Z,2460.00
2023-05-17T05:36:25.606Z,2404.00
2023-05-17T05:37:25.569Z,2380.00
2023-05-17T05:38:25.597Z,2372.00
2023-05-17T05:39:25.558Z,2360.00
2023-05-17T05:40:25.552Z,2328.00
2023-05-17T05:41:25.539Z,2308.00
2023-05-17T05:42:25.510Z,2316.00
2023-05-17T05:43:25.491Z,2336.00
2023-05-17T05:44:26.022Z,2344.00
2023-05-17T05:45:25.537Z,2348.00
2023-05-17T05:46:25.443Z,2344.00
2023-05-17T05:47:25.545Z,2332.00
2023-05-17T05:48:25.495Z,2340.00
2023-05-17T05:49:25.426Z,2356.00
2023-05-17T05:50:25.426Z,2368.00
2023-05-17T05:51:25.415Z,2360.00
2023-05-17T05:52:25.396Z,2364.00
2023-05-17T05:53:25.388Z,2360.00
2023-05-17T05:54:25.380Z,2356.00
2023-05-17T05:55:25.357Z,2352.00
2023-05-17T05:56:25.358Z,2344.00
2023-05-17T05:57:25.345Z,2340.00
2023-05-17T05:58:25.332Z,2336.00
2023-05-17T05:59:25.338Z,2396.00
2023-05-17T06:00:25.404Z,2568.00
2023-05-17T06:01:25.328Z,2708.00
2023-05-17T06:02:25.313Z,2808.00
2023-05-17T06:03:25.331Z,2876.00
2023-05-17T06:04:36.329Z,2916.00
2023-05-17T06:05:25.334Z,2996.00
2023-05-17T06:06:25.282Z,3072.00
2023-05-17T06:07:25.322Z,3052.00
2023-05-17T06:08:25.198Z,3048.00
2023-05-17T06:09:25.228Z,3080.00
2023-05-17T06:10:25.206Z,2972.00
2023-05-17T06:11:25.191Z,2880.00
2023-05-17T06:12:25.168Z,2820.00
2023-05-17T06:13:25.160Z,2784.00
2023-05-17T06:14:25.157Z,2780.00
2023-05-17T06:15:25.138Z,2704.00
2023-05-17T06:16:25.170Z,2776.00
2023-05-17T06:17:25.131Z,2816.00
2023-05-17T06:18:25.205Z,2912.00
2023-05-17T06:19:25.151Z,3320.00
2023-05-17T06:20:25.120Z,3244.00
2023-05-17T06:21:25.065Z,3344.00
2023-05-17T06:22:25.095Z,3460.00
2023-05-17T06:23:25.054Z,3620.00
2023-05-17T06:24:25.062Z,3648.00
2023-05-17T06:25:25.033Z,3720.00
2023-05-17T06:26:25.026Z,3904.00
2023-05-17T06:27:25.013Z,3760.00
2023-05-17T06:28:25.019Z,3824.00
2023-05-17T06:29:25.016Z,3824.00
2023-05-17T06:30:24.996Z,3560.00
2023-05-17T06:31:24.979Z,3460.00
2023-05-17T06:32:24.986Z,3328.00
2023-05-17T06:33:24.970Z,3384.00
2023-05-17T06:34:24.926Z,3408.00
2023-05-17T06:35:24.929Z,3496.00
2023-05-17T06:36:25.428Z,3632.00
2023-05-17T06:37:24.884Z,4068.00
2023-05-17T06:38:24.901Z,3892.00
2023-05-17T06:39:24.896Z,3684.00
2023-05-17T06:40:24.857Z,3608.00
2023-05-17T06:41:24.834Z,3700.00
2023-05-17T06:42:24.854Z,3836.00
2023-05-17T06:43:24.852Z,4184.00
2023-05-17T06:44:24.843Z,4424.00
2023-05-17T06:45:24.801Z,4704.00
2023-05-17T06:46:24.798Z,4932.00
2023-05-17T06:47:24.876Z,4532.00
2023-05-17T06:48:24.923Z,4348.00
2023-05-17T06:49:24.755Z,4648.00
2023-05-17T06:50:24.924Z,6112.00
2023-05-17T06:51:24.740Z,7048.00
2023-05-17T06:52:24.753Z,6604.00
2023-05-17T06:53:24.733Z,5632.00
2023-05-17T06:54:24.699Z,5832.00
2023-05-17T06:55:24.822Z,6728.00
2023-05-17T06:56:24.710Z,6912.00
2023-05-17T06:57:24.662Z,5992.00
2023-05-17T06:58:24.668Z,6156.00
2023-05-17T06:59:24.740Z,6840.00
2023-05-17T07:00:24.616Z,6804.00
2023-05-17T07:01:24.733Z,6224.00
2023-05-17T07:02:24.597Z,6164.00
2023-05-17T07:03:24.659Z,5644.00
2023-05-17T07:04:24.617Z,5376.00
2023-05-17T07:05:24.752Z,5400.00
2023-05-17T07:06:24.546Z,6180.00
2023-05-17T07:07:24.552Z,5744.00
2023-05-17T07:08:24.574Z,5528.00
2023-05-17T07:09:24.528Z,5420.00
2023-05-17T07:10:24.533Z,4924.00
2023-05-17T07:11:24.504Z,4908.00
2023-05-17T07:12:24.506Z,5376.00
2023-05-17T07:13:24.492Z,6392.00
2023-05-17T07:14:25.157Z,6028.00
2023-05-17T07:15:24.451Z,6304.00
2023-05-17T07:16:24.446Z,6260.00
2023-05-17T07:17:24.441Z,6260.00
2023-05-17T07:18:24.559Z,5576.00
2023-05-17T07:19:24.520Z,5000.00
2023-05-17T07:20:24.406Z,4624.00
2023-05-17T07:21:24.402Z,5112.00
2023-05-17T07:22:24.376Z,4944.00
2023-05-17T07:23:24.392Z,4996.00
2023-05-17T07:24:24.361Z,5024.00
2023-05-17T07:25:24.373Z,4684.00
2023-05-17T07:26:24.679Z,5332.00
2023-05-17T07:30:03.233Z,6308.00
2023-05-17T07:31:04.231Z,5812.00
2023-05-17T07:32:04.208Z,5208.00
2023-05-17T07:33:04.261Z,4828.00
2023-05-17T07:34:04.202Z,4948.00
2023-05-17T07:35:04.190Z,5492.00
2023-05-17T07:36:04.215Z,7168.00
2023-05-17T07:37:04.176Z,7276.00
2023-05-17T07:38:04.148Z,7684.00
2023-05-17T07:39:04.138Z,8420.00
2023-05-17T07:40:04.269Z,9120.00
2023-05-17T07:41:04.117Z,8600.00
2023-05-17T07:42:05.655Z,8268.00
2023-05-17T07:43:04.804Z,8548.00
2023-05-17T07:44:04.093Z,8820.00
2023-05-17T07:45:04.083Z,8424.00
2023-05-17T07:46:04.063Z,8172.00
2023-05-17T07:47:04.117Z,8036.00
2023-05-17T07:48:04.334Z,8784.00
2023-05-17T07:49:04.209Z,8720.00
2023-05-17T07:50:04.019Z,8604.00
2023-05-17T07:51:03.997Z,8084.00
2023-05-17T07:52:03.989Z,7676.00
2023-05-17T07:53:03.978Z,7064.00
2023-05-17T07:54:04.238Z,6172.00
2023-05-17T07:55:03.994Z,5984.00
2023-05-17T07:56:03.963Z,6552.00
2023-05-17T07:57:03.939Z,6496.00
2023-05-17T07:58:03.918Z,6144.00
2023-05-17T07:59:03.927Z,6024.00
2023-05-17T08:00:03.919Z,6144.00
2023-05-17T08:01:03.888Z,6460.00
2023-05-17T08:02:03.890Z,6548.00
2023-05-17T08:03:03.928Z,6824.00
2023-05-17T08:04:03.912Z,8064.00
2023-05-17T08:05:04.026Z,8892.00
2023-05-17T08:06:03.930Z,9348.00
2023-05-17T08:07:03.841Z,9436.00
2023-05-17T08:08:03.823Z,9444.00
2023-05-17T08:09:03.842Z,9988.00
2023-05-17T08:10:03.828Z,10352.00
2023-05-17T08:11:03.810Z,10976.00
2023-05-17T08:12:03.779Z,11420.00
2023-05-17T08:13:03.769Z,11428.00
2023-05-17T08:14:03.757Z,11112.00
2023-05-17T08:15:03.738Z,10872.00
2023-05-17T08:16:12.839Z,10756.00
2023-05-17T08:17:03.726Z,10016.00
2023-05-17T08:18:04.950Z,9872.00
2023-05-17T08:19:03.798Z,9708.00
2023-05-17T08:20:03.727Z,9536.00
2023-05-17T08:21:03.671Z,9532.00
2023-05-17T08:22:03.676Z,9092.00
2023-05-17T08:23:03.658Z,8984.00
2023-05-17T08:24:04.173Z,9864.00
2023-05-17T08:25:03.622Z,11436.00
2023-05-17T08:26:03.625Z,10872.00
2023-05-17T08:27:03.629Z,10496.00
2023-05-17T08:28:03.585Z,11112.00
2023-05-17T08:29:03.589Z,11708.00
2023-05-17T08:30:05.590Z,11340.00
2023-05-17T08:31:03.571Z,10460.00
2023-05-17T08:32:03.552Z,10052.00
2023-05-17T08:33:03.665Z,10636.00
2023-05-17T08:34:03.573Z,11444.00
2023-05-17T08:35:03.517Z,10812.00
2023-05-17T08:36:03.519Z,10216.00
2023-05-17T08:37:03.533Z,10512.00
2023-05-17T08:38:03.485Z,11052.00
2023-05-17T08:39:03.469Z,11644.00
2023-05-17T08:40:03.487Z,11748.00
2023-05-17T08:41:03.484Z,10900.00
2023-05-17T08:42:03.428Z,10384.00
2023-05-17T08:43:03.437Z,10132.00
2023-05-17T08:44:03.415Z,9840.00
2023-05-17T08:45:03.417Z,10008.00
2023-05-17T08:46:03.386Z,9848.00
2023-05-17T08:47:03.394Z,9772.00
2023-05-17T08:48:03.431Z,10268.00
2023-05-17T08:49:03.543Z,11116.00
2023-05-17T08:50:03.344Z,11908.00
2023-05-17T08:51:03.344Z,12192.00
2023-05-17T08:52:03.331Z,11876.00
2023-05-17T08:53:03.359Z,11784.00
2023-05-17T08:54:03.287Z,11880.00
2023-05-17T08:55:03.298Z,11492.00
2023-05-17T08:56:03.278Z,11264.00
2023-05-17T08:57:03.258Z,11796.00
2023-05-17T08:58:03.238Z,12352.00
2023-05-17T08:59:03.251Z,12872.00
2023-05-17T09:00:03.232Z,13424.00
2023-05-17T09:01:03.231Z,13128.00
2023-05-17T09:02:03.217Z,12396.00
2023-05-17T09:03:03.346Z,11640.00
2023-05-17T09:04:03.203Z,10844.00
2023-05-17T09:05:03.347Z,10168.00
2023-05-17T09:06:03.301Z,9832.00
2023-05-17T09:07:03.165Z,10276.00
2023-05-17T09:08:03.150Z,10836.00
2023-05-17T09:09:03.152Z,11828.00
2023-05-17T09:10:03.103Z,12564.00
2023-05-17T09:11:03.120Z,12892.00
2023-05-17T09:12:03.094Z,12804.00
2023-05-17T09:13:03.076Z,12264.00
2023-05-17T09:14:03.063Z,11364.00
2023-05-17T09:15:03.079Z,11108.00
2023-05-17T09:16:03.041Z,11412.00
2023-05-17T09:17:03.038Z,11908.00
2023-05-17T09:18:03.173Z,11872.00
2023-05-17T09:19:03.200Z,11944.00
2023-05-17T09:20:03.084Z,11824.00
2023-05-17T09:21:02.997Z,11008.00
2023-05-17T09:22:02.990Z,9876.00
2023-05-17T09:23:02.983Z,8376.00
2023-05-17T09:24:07.447Z,6932.00
2023-05-17T09:25:02.977Z,5724.00
2023-05-17T09:26:02.934Z,5000.00
2023-05-17T09:27:02.967Z,4724.00
2023-05-17T09:28:02.952Z,4656.00
2023-05-17T09:29:02.923Z,4784.00
2023-05-17T09:30:02.905Z,4772.00
2023-05-17T09:31:02.905Z,4776.00
2023-05-17T09:32:02.871Z,5068.00
2023-05-17T09:33:02.896Z,5668.00
2023-05-17T09:34:02.934Z,6644.00
2023-05-17T09:35:02.948Z,7604.00
2023-05-17T09:36:02.831Z,8080.00
2023-05-17T09:37:02.830Z,8580.00
2023-05-17T09:38:02.814Z,9544.00
2023-05-17T09:39:02.815Z,10788.00
2023-05-17T09:40:03.756Z,12056.00
2023-05-17T09:41:02.797Z,12708.00
2023-05-17T09:42:02.780Z,12688.00
2023-05-17T09:43:02.779Z,12652.00
2023-05-17T09:44:02.738Z,12800.00
2023-05-17T09:45:02.789Z,12996.00
2023-05-17T09:46:02.756Z,12504.00
2023-05-17T09:47:02.786Z,11528.00
2023-05-17T09:48:02.807Z,10760.00
2023-05-17T09:49:02.874Z,10488.00
2023-05-17T09:50:02.787Z,10416.00
2023-05-17T09:51:02.670Z,10948.00
2023-05-17T09:52:02.671Z,10792.00
2023-05-17T09:53:02.651Z,11200.00
2023-05-17T09:54:02.670Z,12380.00
2023-05-17T09:55:02.637Z,12964.00
2023-05-17T09:56:02.623Z,12784.00
2023-05-17T09:57:02.617Z,11844.00
2023-05-17T09:58:02.602Z,10368.00
2023-05-17T09:59:02.588Z,9504.00
2023-05-17T10:00:02.571Z,9064.00
2023-05-17T10:01:02.593Z,8784.00
2023-05-17T10:02:02.544Z,8828.00
2023-05-17T10:03:02.719Z,8364.00
2023-05-17T10:04:02.825Z,8092.00
2023-05-17T10:05:02.576Z,8680.00
2023-05-17T10:06:02.528Z,9344.00
2023-05-17T10:07:02.520Z,9724.00
2023-05-17T10:08:02.493Z,10100.00
2023-05-17T10:09:02.496Z,10608.00
2023-05-17T10:10:02.476Z,10464.00
2023-05-17T10:11:02.456Z,9936.00
2023-05-17T10:12:02.457Z,9128.00
2023-05-17T10:13:02.451Z,8828.00
2023-05-17T10:14:02.431Z,8952.00
2023-05-17T10:15:02.474Z,9744.00
2023-05-17T10:16:02.383Z,10860.00
2023-05-17T10:17:02.378Z,11240.00
2023-05-17T10:18:02.428Z,10792.00
2023-05-17T10:19:02.449Z,9204.00
2023-05-17T10:20:02.459Z,7976.00
2023-05-17T10:21:02.350Z,7240.00
2023-05-17T10:22:11.624Z,7080.00
2023-05-17T10:23:02.326Z,8656.00
2023-05-17T10:24:02.292Z,10988.00
2023-05-17T10:25:02.306Z,12160.00
2023-05-17T10:26:02.282Z,11116.00
2023-05-17T10:27:02.285Z,9816.00
2023-05-17T10:28:02.271Z,8336.00
2023-05-17T10:29:02.281Z,7572.00
2023-05-17T10:30:02.245Z,7020.00
2023-05-17T10:31:02.242Z,6460.00
2023-05-17T10:32:02.208Z,6208.00
2023-05-17T10:33:02.360Z,6060.00
2023-05-17T10:34:02.208Z,6012.00
2023-05-17T10:35:11.118Z,6124.00
2023-05-17T10:36:02.191Z,6584.00
2023-05-17T10:37:02.153Z,7344.00
2023-05-17T10:38:02.162Z,8876.00
2023-05-17T10:39:02.120Z,10276.00
2023-05-17T10:40:02.136Z,11260.00
2023-05-17T10:41:02.281Z,11972.00
2023-05-17T10:42:13.623Z,11260.00
2023-05-17T10:43:02.099Z,10880.00
2023-05-17T10:44:02.079Z,10432.00
2023-05-17T10:45:02.157Z,10840.00
2023-05-17T10:46:02.061Z,12236.00
2023-05-17T10:47:02.117Z,13800.00
2023-05-17T10:48:02.073Z,14756.00
2023-05-17T10:49:02.086Z,14360.00
2023-05-17T10:50:02.035Z,14328.00
2023-05-17T10:51:02.234Z,14516.00
2023-05-17T10:52:02.015Z,13820.00
2023-05-17T10:53:02.003Z,13600.00
2023-05-17T10:54:02.058Z,13564.00
2023-05-17T10:55:01.959Z,13648.00
2023-05-17T10:56:01.937Z,13724.00
2023-05-17T10:57:01.924Z,14068.00
2023-05-17T10:58:01.910Z,14488.00
2023-05-17T10:59:01.918Z,15016.00
2023-05-17T11:00:01.894Z,15632.00
2023-05-17T11:01:01.897Z,16280.00
2023-05-17T11:02:01.912Z,16364.00
2023-05-17T11:03:01.890Z,16192.00
2023-05-17T11:04:01.858Z,15160.00
2023-05-17T11:05:02.014Z,14640.00
2023-05-17T11:06:02.198Z,14636.00
2023-05-17T11:07:04.056Z,15352.00
2023-05-17T11:08:01.837Z,16300.00
2023-05-17T11:09:01.807Z,16888.00
2023-05-17T11:10:01.801Z,17032.00
2023-05-17T11:11:01.781Z,16580.00
2023-05-17T11:12:01.768Z,15960.00
2023-05-17T11:13:01.758Z,15844.00
2023-05-17T11:14:01.751Z,16260.00
2023-05-17T11:15:01.734Z,16864.00
2023-05-17T11:16:01.728Z,17888.00
2023-05-17T11:17:01.692Z,17952.00
2023-05-17T11:18:01.884Z,17020.00
2023-05-17T11:19:01.911Z,17152.00
2023-05-17T11:20:02.081Z,17568.00
2023-05-17T11:21:01.857Z,16228.00
2023-05-17T11:22:01.651Z,15456.00
2023-05-17T11:23:01.678Z,14192.00
2023-05-17T11:24:01.755Z,13056.00
2023-05-17T11:25:01.629Z,12256.00
2023-05-17T11:26:12.835Z,11680.00
2023-05-17T11:27:01.607Z,11808.00
2023-05-17T11:28:01.597Z,11892.00
2023-05-17T11:29:01.610Z,11640.00
2023-05-17T11:30:01.597Z,11828.00
2023-05-17T11:31:01.546Z,12168.00
2023-05-17T11:32:01.537Z,12840.00
2023-05-17T11:33:01.626Z,13320.00
2023-05-17T11:34:01.598Z,13324.00
2023-05-17T11:35:01.514Z,13080.00
2023-05-17T11:36:01.516Z,13312.00
2023-05-17T11:37:01.503Z,13504.00
2023-05-17T11:38:01.486Z,13304.00
2023-05-17T11:39:08.126Z,13532.00
2023-05-17T11:40:01.468Z,14052.00
2023-05-17T11:41:01.457Z,15300.00
2023-05-17T11:42:01.443Z,16480.00
2023-05-17T11:43:01.407Z,16844.00
2023-05-17T11:44:01.400Z,17420.00
2023-05-17T11:45:01.389Z,19264.00
2023-05-17T11:46:01.421Z,19584.00
2023-05-17T11:47:01.468Z,20416.00
2023-05-17T11:48:01.455Z,21440.00
2023-05-17T11:49:01.376Z,21088.00
2023-05-17T11:50:01.360Z,20416.00
2023-05-17T11:51:02.384Z,21120.00
2023-05-17T11:52:01.346Z,21152.00
2023-05-17T11:53:01.332Z,20320.00
2023-05-17T11:54:01.312Z,18304.00
2023-05-17T11:55:01.285Z,18528.00
2023-05-17T11:56:01.284Z,18048.00
2023-05-17T11:57:01.277Z,17728.00
2023-05-17T11:58:01.270Z,17208.00
2023-05-17T11:59:01.257Z,17132.00
2023-05-17T12:00:01.266Z,17632.00
2023-05-17T12:01:01.239Z,17888.00
2023-05-17T12:02:01.231Z,18368.00
2023-05-17T12:03:01.258Z,18656.00
2023-05-17T12:04:01.254Z,18720.00
2023-05-17T12:05:01.361Z,18048.00
2023-05-17T12:06:01.241Z,17888.00
2023-05-17T12:07:01.173Z,17728.00
2023-05-17T12:08:01.156Z,17888.00
2023-05-17T12:09:01.144Z,15444.00
2023-05-17T12:10:01.146Z,11960.00
2023-05-17T12:11:01.114Z,9844.00
2023-05-17T12:12:01.106Z,8696.00
2023-05-17T12:13:01.088Z,8376.00
2023-05-17T12:14:01.081Z,8928.00
2023-05-17T12:15:01.067Z,9524.00
2023-05-17T12:16:01.076Z,10380.00
2023-05-17T12:17:01.047Z,11112.00
2023-05-17T12:18:01.148Z,11916.00
2023-05-17T12:19:01.106Z,12976.00
2023-05-17T12:20:01.018Z,13920.00
2023-05-17T12:21:01.001Z,14492.00
2023-05-17T12:22:01.000Z,14904.00
2023-05-17T12:23:00.971Z,15468.00
2023-05-17T12:24:00.976Z,16340.00